Natalie — WDF2101 — position and weather

sailwx.info

Track history (hours):
 
Tides and Currents Weather Stations Pressure Air Temp Water Temp Dewpoint Dewpoint Depression Visibility Wind Speed Wind Dir Waves Ship Positions

Natalie

Owner: EINSELEN, CHRISTIAN, LONG BEACH TOWNSHIP, NJ. More information available from US FCC via Universal Licensing System and Coast Guard Vessel Documentation Center.

Last reported at 2017-Sep-25 00:13 UTC. Time now 2017-Sep-25 00:41 UTC.
Position N 39°46' W 074°07'.

Length 14 m.

Type: Fishing. MMSI: 367424880.

Date/timePositionNaut miles runAvg speedWind from/ knotsBaromVisibWave heightAir tempDewpointWater temp
2017-Sep-25 00:13N 39°46' W 074°07'0 0.0
2017-Sep-24 23:49N 39°46' W 074°07'0 0.0
2017-Sep-24 23:19N 39°46' W 074°07'0 0.0
2017-Sep-24 22:31N 39°46' W 074°07'0 0.0
2017-Sep-24 22:19N 39°46' W 074°07'0 0.0
2017-Sep-24 21:31N 39°46' W 074°07'0 0.0
2017-Sep-24 21:13N 39°46' W 074°07'0 0.0
2017-Sep-24 20:55N 39°46' W 074°07'0 0.0
2017-Sep-24 20:14N 39°46' W 074°07'0 0.0
2017-Sep-24 19:55N 39°46' W 074°07'0 0.0
2017-Sep-24 19:21N 39°46' W 074°07'0 0.0
2017-Sep-24 18:15N 39°46' W 074°07'0 0.0
2017-Sep-24 17:57N 39°46' W 074°07'0 0.0
2017-Sep-24 17:03N 39°46' W 074°07'0 0.0
2017-Sep-24 16:51N 39°46' W 074°07'0 0.1
2017-Sep-24 16:29N 39°46' W 074°07'2 4.8
2017-Sep-24 15:59N 39°46' W 074°04'4 8.6
2017-Sep-24 15:29N 39°48' W 073°59'0 0.2
2017-Sep-24 15:00N 39°48' W 073°59'2 2.9
2017-Sep-24 14:28N 39°49' W 073°59'3 5.8
2017-Sep-24 13:59N 39°51' W 074°02'1 1.5
2017-Sep-24 13:25N 39°52' W 074°03'0 0.9
2017-Sep-24 12:54N 39°51' W 074°03'1 1.7
2017-Sep-24 12:28N 39°51' W 074°02'1 1.7
2017-Sep-24 11:58N 39°52' W 074°03'3 6.7
2017-Sep-24 11:28N 39°55' W 074°03'1 1.4
2017-Sep-24 10:57N 39°55' W 074°04'0 0.5
2017-Sep-24 10:28N 39°55' W 074°04'1 0.6
2017-Sep-24 08:53N 39°55' W 074°02'1 3.0
2017-Sep-24 08:30N 39°55' W 074°04'4 7.9
2017-Sep-24 07:59N 39°51' W 074°04'4 7.7
2017-Sep-24 07:30N 39°47' W 074°05'2 3.7
2017-Sep-24 06:54N 39°46' W 074°07'0 0.1
2017-Sep-24 06:29N 39°46' W 074°07'0 0.0
2017-Sep-24 05:56N 39°46' W 074°07'0 0.0
2017-Sep-24 05:29N 39°46' W 074°07'0 0.0
2017-Sep-24 04:56N 39°46' W 074°07'0 0.0
2017-Sep-24 03:44N 39°46' W 074°07'0 0.0
2017-Sep-24 03:14N 39°46' W 074°07'0 0.0
2017-Sep-24 02:50N 39°46' W 074°07'0 0.0
2017-Sep-24 02:29N 39°46' W 074°07'0 0.0
2017-Sep-24 01:59N 39°46' W 074°07'0 0.0
2017-Sep-24 01:23N 39°46' W 074°07'0 0.0
2017-Sep-24 00:41N 39°46' W 074°07'0 0.0
2017-Sep-24 00:29N 39°46' W 074°07'0 0.0
2017-Sep-23 23:59N 39°46' W 074°07'0 0.0
2017-Sep-23 23:23N 39°46' W 074°07'0 0.0
2017-Sep-23 22:35N 39°46' W 074°07'0 0.0
2017-Sep-23 22:23N 39°46' W 074°07'0 0.0
2017-Sep-23 21:59N 39°46' W 074°07'0 0.0
2017-Sep-23 21:29N 39°46' W 074°07'0 0.0
2017-Sep-23 20:41N 39°46' W 074°07'0 0.0
2017-Sep-23 20:29N 39°46' W 074°07'0 0.0
2017-Sep-23 19:35N 39°46' W 074°07'  
2017-Sep-17 14:52N 39°46' W 074°06'2 6.2
2017-Sep-17 14:31N 39°44' W 074°04'2 4.8
2017-Sep-17 14:00N 39°42' W 074°04'0 0.8
2017-Sep-17 13:30N 39°42' W 074°05'0 0.4
2017-Sep-17 12:44N 39°42' W 074°05'0 0.3
2017-Sep-17 12:30N 39°42' W 074°05'0 0.3
2017-Sep-17 11:54N 39°42' W 074°05'1 2.1
2017-Sep-17 11:29N 39°42' W 074°04'1 2.7
2017-Sep-17 10:59N 39°42' W 074°06'1 2.3
2017-Sep-17 10:29N 39°43' W 074°07'2 3.6
2017-Sep-17 09:58N 39°42' W 074°05'0 0.4
2017-Sep-17 09:28N 39°42' W 074°05'2 3.9
2017-Sep-17 09:00N 39°43' W 074°07'3 6.1
2017-Sep-17 08:31N 39°45' W 074°04'2 3.9
2017-Sep-17 07:58N 39°46' W 074°07'0 0.0
2017-Sep-17 07:27N 39°46' W 074°07'0 0.0
2017-Sep-17 06:57N 39°46' W 074°07'0 0.0
2017-Sep-17 06:27N 39°46' W 074°07'0 0.0
2017-Sep-17 05:57N 39°46' W 074°07'0 0.0
2017-Sep-17 05:27N 39°46' W 074°07'0 0.0
2017-Sep-17 04:57N 39°46' W 074°07'0 0.0
2017-Sep-17 04:24N 39°46' W 074°07'0 0.0
2017-Sep-17 03:57N 39°46' W 074°07'0 0.0
2017-Sep-17 03:27N 39°46' W 074°07'0 0.0
2017-Sep-17 02:57N 39°46' W 074°07'0 0.0
2017-Sep-17 02:30N 39°46' W 074°07'0 0.0
2017-Sep-17 01:57N 39°46' W 074°07'0 0.0
2017-Sep-17 01:30N 39°46' W 074°07'0 0.0
2017-Sep-17 00:57N 39°46' W 074°07'0 0.0
2017-Sep-16 23:51N 39°46' W 074°07'0 0.0
2017-Sep-16 23:21N 39°46' W 074°07'0 0.0
2017-Sep-16 22:51N 39°46' W 074°07'0 0.0
2017-Sep-16 22:27N 39°46' W 074°07'0 0.0
2017-Sep-16 21:51N 39°46' W 074°07'0 0.0
2017-Sep-16 21:21N 39°46' W 074°07'0 0.0
2017-Sep-16 20:39N 39°46' W 074°07'0 0.0
2017-Sep-16 20:27N 39°46' W 074°07'0 0.0
2017-Sep-16 19:57N 39°46' W 074°07'0 0.0
2017-Sep-16 19:21N 39°46' W 074°07'0 0.0
2017-Sep-16 18:39N 39°46' W 074°07'0 0.0
2017-Sep-16 18:27N 39°46' W 074°07'0 0.0
2017-Sep-16 17:51N 39°46' W 074°07'0 0.0
2017-Sep-16 17:00N 39°46' W 074°07'3 5.0
2017-Sep-16 16:29N 39°48' W 074°04'2 1.6
2017-Sep-16 15:00N 39°50' W 074°03'0 0.4
2017-Sep-16 14:11N 39°50' W 074°04'0 0.1
2017-Sep-16 13:59N 39°50' W 074°04'1 0.9
2017-Sep-16 13:24N 39°50' W 074°03'1 3.1
2017-Sep-16 12:59N 39°51' W 074°05'0 0.6
2017-Sep-16 12:12N 39°50' W 074°04'0 1.4
2017-Sep-16 12:00N 39°50' W 074°04'1 1.6
2017-Sep-16 11:22N 39°51' W 074°04'0 0.5
2017-Sep-16 10:53N 39°51' W 074°04'0 0.3
2017-Sep-16 09:52N 39°51' W 074°04'0 0.3
2017-Sep-16 09:25N 39°51' W 074°04'0 1.1
2017-Sep-16 08:58N 39°50' W 074°04'1 1.4
2017-Sep-16 08:30N 39°51' W 074°04'4 8.3
2017-Sep-16 07:59N 39°47' W 074°05'2 3.4
2017-Sep-16 07:30N 39°46' W 074°07'0 0.1
2017-Sep-16 07:00N 39°46' W 074°07'0 0.0
2017-Sep-16 06:30N 39°46' W 074°07'0 0.0
2017-Sep-16 06:00N 39°46' W 074°07'0 0.0
2017-Sep-16 05:30N 39°46' W 074°07'0 0.0
2017-Sep-16 05:00N 39°46' W 074°07'0 0.0
2017-Sep-16 04:30N 39°46' W 074°07'0 0.0
2017-Sep-16 04:00N 39°46' W 074°07'0 0.0
2017-Sep-16 03:30N 39°46' W 074°07'0 0.0
2017-Sep-16 02:57N 39°46' W 074°07'0 0.0
2017-Sep-16 02:30N 39°46' W 074°07'0 0.0
2017-Sep-16 01:27N 39°46' W 074°07'0 0.0
2017-Sep-16 01:00N 39°46' W 074°07'0 0.0
2017-Sep-16 00:15N 39°46' W 074°07'0 0.0
2017-Sep-15 23:51N 39°46' W 074°07'0 0.0
2017-Sep-15 23:21N 39°46' W 074°07'0 0.0
2017-Sep-15 22:57N 39°46' W 074°07'0 0.0
2017-Sep-15 22:21N 39°46' W 074°07'0 0.0
2017-Sep-15 21:09N 39°46' W 074°07'0 0.0
2017-Sep-15 20:39N 39°46' W 074°07'0 0.0
2017-Sep-15 20:27N 39°46' W 074°07'0 0.0
2017-Sep-15 17:27N 39°46' W 074°07'0 0.0
2017-Sep-15 15:56N 39°46' W 074°07'1 0.9
2017-Sep-15 15:23N 39°46' W 074°06'2 5.9
2017-Sep-15 14:59N 39°48' W 074°04'2 4.5
2017-Sep-15 14:29N 39°50' W 074°04'1 1.2
2017-Sep-15 13:58N 39°50' W 074°04'1 1.4
2017-Sep-15 13:26N 39°50' W 074°03'3 1.4
2017-Sep-15 11:16N 39°53' W 074°04'0 0.1
2017-Sep-15 09:39N 39°53' W 074°04'1 5.0
2017-Sep-15 09:23N 39°52' W 074°04'4 8.4
2017-Sep-15 08:57N 39°48' W 074°05'3 5.6
2017-Sep-15 08:29N 39°46' W 074°06'0 0.4
2017-Sep-15 07:48N 39°46' W 074°07'0 0.1
2017-Sep-15 07:21N 39°46' W 074°07'0 0.0
2017-Sep-15 06:45N 39°46' W 074°07'0 0.0
2017-Sep-15 05:33N 39°46' W 074°07'0 0.0
2017-Sep-15 04:45N 39°46' W 074°07'0 0.0
2017-Sep-15 03:33N 39°46' W 074°07'0 0.0
2017-Sep-15 02:09N 39°46' W 074°07'0 0.0
2017-Sep-15 01:57N 39°46' W 074°07'0 0.0
2017-Sep-15 01:30N 39°46' W 074°07'0 0.0
2017-Sep-15 00:48N 39°46' W 074°07'0 0.0
2017-Sep-15 00:30N 39°46' W 074°07'  
Track history (hours):
 
Tides and Currents Weather Stations Pressure Air Temp Water Temp Dewpoint Dewpoint Depression Visibility Wind Speed Wind Dir Waves Ship Positions

Natalie

Owner: EINSELEN, CHRISTIAN, LONG BEACH TOWNSHIP, NJ. More information available from US FCC via Universal Licensing System and Coast Guard Vessel Documentation Center.

Last reported at 2017-Sep-25 00:13 UTC. Time now 2017-Sep-25 00:41 UTC.
Position N 39°46' W 074°07'.

Length 14 m.

Type: Fishing. MMSI: 367424880.

Date/timePositionNaut miles runAvg speedWind from/ knotsBaromVisibWave heightAir tempDewpointWater temp
2017-Sep-25 00:13N 39°46' W 074°07'0 0.0
2017-Sep-24 23:49N 39°46' W 074°07'0 0.0
2017-Sep-24 23:19N 39°46' W 074°07'0 0.0
2017-Sep-24 22:31N 39°46' W 074°07'0 0.0
2017-Sep-24 22:19N 39°46' W 074°07'0 0.0
2017-Sep-24 21:31N 39°46' W 074°07'0 0.0
2017-Sep-24 21:13N 39°46' W 074°07'0 0.0
2017-Sep-24 20:55N 39°46' W 074°07'0 0.0
2017-Sep-24 20:14N 39°46' W 074°07'0 0.0
2017-Sep-24 19:55N 39°46' W 074°07'0 0.0
2017-Sep-24 19:21N 39°46' W 074°07'0 0.0
2017-Sep-24 18:15N 39°46' W 074°07'0 0.0
2017-Sep-24 17:57N 39°46' W 074°07'0 0.0
2017-Sep-24 17:03N 39°46' W 074°07'0 0.0
2017-Sep-24 16:51N 39°46' W 074°07'0 0.1
2017-Sep-24 16:29N 39°46' W 074°07'2 4.8
2017-Sep-24 15:59N 39°46' W 074°04'4 8.6
2017-Sep-24 15:29N 39°48' W 073°59'0 0.2
2017-Sep-24 15:00N 39°48' W 073°59'2 2.9
2017-Sep-24 14:28N 39°49' W 073°59'3 5.8
2017-Sep-24 13:59N 39°51' W 074°02'1 1.5
2017-Sep-24 13:25N 39°52' W 074°03'0 0.9
2017-Sep-24 12:54N 39°51' W 074°03'1 1.7
2017-Sep-24 12:28N 39°51' W 074°02'1 1.7
2017-Sep-24 11:58N 39°52' W 074°03'3 6.7
2017-Sep-24 11:28N 39°55' W 074°03'1 1.4
2017-Sep-24 10:57N 39°55' W 074°04'0 0.5
2017-Sep-24 10:28N 39°55' W 074°04'1 0.6
2017-Sep-24 08:53N 39°55' W 074°02'1 3.0
2017-Sep-24 08:30N 39°55' W 074°04'4 7.9
2017-Sep-24 07:59N 39°51' W 074°04'4 7.7
2017-Sep-24 07:30N 39°47' W 074°05'2 3.7
2017-Sep-24 06:54N 39°46' W 074°07'0 0.1
2017-Sep-24 06:29N 39°46' W 074°07'0 0.0
2017-Sep-24 05:56N 39°46' W 074°07'0 0.0
2017-Sep-24 05:29N 39°46' W 074°07'0 0.0
2017-Sep-24 04:56N 39°46' W 074°07'0 0.0
2017-Sep-24 03:44N 39°46' W 074°07'0 0.0
2017-Sep-24 03:14N 39°46' W 074°07'0 0.0
2017-Sep-24 02:50N 39°46' W 074°07'0 0.0
2017-Sep-24 02:29N 39°46' W 074°07'0 0.0
2017-Sep-24 01:59N 39°46' W 074°07'0 0.0
2017-Sep-24 01:23N 39°46' W 074°07'0 0.0
2017-Sep-24 00:41N 39°46' W 074°07'0 0.0
2017-Sep-24 00:29N 39°46' W 074°07'0 0.0
2017-Sep-23 23:59N 39°46' W 074°07'0 0.0
2017-Sep-23 23:23N 39°46' W 074°07'0 0.0
2017-Sep-23 22:35N 39°46' W 074°07'0 0.0
2017-Sep-23 22:23N 39°46' W 074°07'0 0.0
2017-Sep-23 21:59N 39°46' W 074°07'0 0.0
2017-Sep-23 21:29N 39°46' W 074°07'0 0.0
2017-Sep-23 20:41N 39°46' W 074°07'0 0.0
2017-Sep-23 20:29N 39°46' W 074°07'0 0.0
2017-Sep-23 19:35N 39°46' W 074°07'  
2017-Sep-17 14:52N 39°46' W 074°06'2 6.2
2017-Sep-17 14:31N 39°44' W 074°04'2 4.8
2017-Sep-17 14:00N 39°42' W 074°04'0 0.8
2017-Sep-17 13:30N 39°42' W 074°05'0 0.4
2017-Sep-17 12:44N 39°42' W 074°05'0 0.3
2017-Sep-17 12:30N 39°42' W 074°05'0 0.3
2017-Sep-17 11:54N 39°42' W 074°05'1 2.1
2017-Sep-17 11:29N 39°42' W 074°04'1 2.7
2017-Sep-17 10:59N 39°42' W 074°06'1 2.3
2017-Sep-17 10:29N 39°43' W 074°07'2 3.6
2017-Sep-17 09:58N 39°42' W 074°05'0 0.4
2017-Sep-17 09:28N 39°42' W 074°05'2 3.9
2017-Sep-17 09:00N 39°43' W 074°07'3 6.1
2017-Sep-17 08:31N 39°45' W 074°04'2 3.9
2017-Sep-17 07:58N 39°46' W 074°07'0 0.0
2017-Sep-17 07:27N 39°46' W 074°07'0 0.0
2017-Sep-17 06:57N 39°46' W 074°07'0 0.0
2017-Sep-17 06:27N 39°46' W 074°07'0 0.0
2017-Sep-17 05:57N 39°46' W 074°07'0 0.0
2017-Sep-17 05:27N 39°46' W 074°07'0 0.0
2017-Sep-17 04:57N 39°46' W 074°07'0 0.0
2017-Sep-17 04:24N 39°46' W 074°07'0 0.0
2017-Sep-17 03:57N 39°46' W 074°07'0 0.0
2017-Sep-17 03:27N 39°46' W 074°07'0 0.0
2017-Sep-17 02:57N 39°46' W 074°07'0 0.0
2017-Sep-17 02:30N 39°46' W 074°07'0 0.0
2017-Sep-17 01:57N 39°46' W 074°07'0 0.0
2017-Sep-17 01:30N 39°46' W 074°07'0 0.0
2017-Sep-17 00:57N 39°46' W 074°07'0 0.0
2017-Sep-16 23:51N 39°46' W 074°07'0 0.0
2017-Sep-16 23:21N 39°46' W 074°07'0 0.0
2017-Sep-16 22:51N 39°46' W 074°07'0 0.0
2017-Sep-16 22:27N 39°46' W 074°07'0 0.0
2017-Sep-16 21:51N 39°46' W 074°07'0 0.0
2017-Sep-16 21:21N 39°46' W 074°07'0 0.0
2017-Sep-16 20:39N 39°46' W 074°07'0 0.0
2017-Sep-16 20:27N 39°46' W 074°07'0 0.0
2017-Sep-16 19:57N 39°46' W 074°07'0 0.0
2017-Sep-16 19:21N 39°46' W 074°07'0 0.0
2017-Sep-16 18:39N 39°46' W 074°07'0 0.0
2017-Sep-16 18:27N 39°46' W 074°07'0 0.0
2017-Sep-16 17:51N 39°46' W 074°07'0 0.0
2017-Sep-16 17:00N 39°46' W 074°07'3 5.0
2017-Sep-16 16:29N 39°48' W 074°04'2 1.6
2017-Sep-16 15:00N 39°50' W 074°03'0 0.4
2017-Sep-16 14:11N 39°50' W 074°04'0 0.1
2017-Sep-16 13:59N 39°50' W 074°04'1 0.9
2017-Sep-16 13:24N 39°50' W 074°03'1 3.1
2017-Sep-16 12:59N 39°51' W 074°05'0 0.6
2017-Sep-16 12:12N 39°50' W 074°04'0 1.4
2017-Sep-16 12:00N 39°50' W 074°04'1 1.6
2017-Sep-16 11:22N 39°51' W 074°04'0 0.5
2017-Sep-16 10:53N 39°51' W 074°04'0 0.3
2017-Sep-16 09:52N 39°51' W 074°04'0 0.3
2017-Sep-16 09:25N 39°51' W 074°04'0 1.1
2017-Sep-16 08:58N 39°50' W 074°04'1 1.4
2017-Sep-16 08:30N 39°51' W 074°04'4 8.3
2017-Sep-16 07:59N 39°47' W 074°05'2 3.4
2017-Sep-16 07:30N 39°46' W 074°07'0 0.1
2017-Sep-16 07:00N 39°46' W 074°07'0 0.0
2017-Sep-16 06:30N 39°46' W 074°07'0 0.0
2017-Sep-16 06:00N 39°46' W 074°07'0 0.0
2017-Sep-16 05:30N 39°46' W 074°07'0 0.0
2017-Sep-16 05:00N 39°46' W 074°07'0 0.0
2017-Sep-16 04:30N 39°46' W 074°07'0 0.0
2017-Sep-16 04:00N 39°46' W 074°07'0 0.0
2017-Sep-16 03:30N 39°46' W 074°07'0 0.0
2017-Sep-16 02:57N 39°46' W 074°07'0 0.0
2017-Sep-16 02:30N 39°46' W 074°07'0 0.0
2017-Sep-16 01:27N 39°46' W 074°07'0 0.0
2017-Sep-16 01:00N 39°46' W 074°07'0 0.0
2017-Sep-16 00:15N 39°46' W 074°07'0 0.0
2017-Sep-15 23:51N 39°46' W 074°07'0 0.0
2017-Sep-15 23:21N 39°46' W 074°07'0 0.0
2017-Sep-15 22:57N 39°46' W 074°07'0 0.0
2017-Sep-15 22:21N 39°46' W 074°07'0 0.0
2017-Sep-15 21:09N 39°46' W 074°07'0 0.0
2017-Sep-15 20:39N 39°46' W 074°07'0 0.0
2017-Sep-15 20:27N 39°46' W 074°07'0 0.0
2017-Sep-15 17:27N 39°46' W 074°07'0 0.0
2017-Sep-15 15:56N 39°46' W 074°07'1 0.9
2017-Sep-15 15:23N 39°46' W 074°06'2 5.9
2017-Sep-15 14:59N 39°48' W 074°04'2 4.5
2017-Sep-15 14:29N 39°50' W 074°04'1 1.2
2017-Sep-15 13:58N 39°50' W 074°04'1 1.4
2017-Sep-15 13:26N 39°50' W 074°03'3 1.4
2017-Sep-15 11:16N 39°53' W 074°04'0 0.1
2017-Sep-15 09:39N 39°53' W 074°04'1 5.0
2017-Sep-15 09:23N 39°52' W 074°04'4 8.4
2017-Sep-15 08:57N 39°48' W 074°05'3 5.6
2017-Sep-15 08:29N 39°46' W 074°06'0 0.4
2017-Sep-15 07:48N 39°46' W 074°07'0 0.1
2017-Sep-15 07:21N 39°46' W 074°07'0 0.0
2017-Sep-15 06:45N 39°46' W 074°07'0 0.0
2017-Sep-15 05:33N 39°46' W 074°07'0 0.0
2017-Sep-15 04:45N 39°46' W 074°07'0 0.0
2017-Sep-15 03:33N 39°46' W 074°07'0 0.0
2017-Sep-15 02:09N 39°46' W 074°07'0 0.0
2017-Sep-15 01:57N 39°46' W 074°07'0 0.0
2017-Sep-15 01:30N 39°46' W 074°07'0 0.0
2017-Sep-15 00:48N 39°46' W 074°07'0 0.0
2017-Sep-15 00:30N 39°46' W 074°07'  

Dump ship's entire track history